Time;durP1;ratioP1;P1;durP2;ratioP2;P2;SDS_P1;SDS_P2;PMS_P1;PMS_P2;Temp;Humidity;BMP_temperature;BMP_pressure;BME280_temperature;BME280_humidity;BME280_pressure;Samples;Min_cycle;Max_cycle;Signal;HPM_P1;HPM_P2
2021/03/02 00:02:38;;;;;;;15.27;8.57;;;;;;;;;;5020619;28;20033;-83
2021/03/02 00:05:24;;;;;;;18.98;9.10;;;;;;;;;;5022413;28;20029;-84
2021/03/02 00:08:09;;;;;;;16.80;9.18;;;;;;;;;;5025924;28;20040;-84
2021/03/02 00:10:55;;;;;;;16.67;9.50;;;;;;;;;;5024599;28;20104;-84
2021/03/02 00:13:40;;;;;;;13.10;8.48;;;;;;;;;;5023531;28;20491;-84
2021/03/02 00:16:25;;;;;;;14.00;8.30;;;;;;;;;;5030368;28;20539;-85
2021/03/02 00:19:14;;;;;;;19.20;9.32;;;;;;;;;;5030572;28;20014;-84
2021/03/02 00:22:03;;;;;;;16.20;8.60;;;;;;;;;;5028480;28;20116;-84
2021/03/02 00:24:50;;;;;;;17.90;9.02;;;;;;;;;;5030969;28;20024;-84
2021/03/02 00:27:35;;;;;;;14.25;8.85;;;;;;;;;;5030231;28;20034;-83
2021/03/02 00:30:21;;;;;;;13.13;8.38;;;;;;;;;;5014290;28;20021;-84
2021/03/02 00:33:07;;;;;;;16.67;8.73;;;;;;;;;;5026328;28;20029;-84
2021/03/02 00:35:52;;;;;;;14.90;7.75;;;;;;;;;;5021715;28;20021;-84
2021/03/02 00:38:37;;;;;;;15.82;8.80;;;;;;;;;;5017243;28;20489;-84
2021/03/02 00:41:22;;;;;;;14.88;8.60;;;;;;;;;;5025730;28;20044;-83
2021/03/02 00:44:07;;;;;;;17.48;8.45;;;;;;;;;;5030120;28;20091;-84
2021/03/02 00:46:53;;;;;;;16.88;7.90;;;;;;;;;;5023810;28;20092;-83
2021/03/02 00:49:38;;;;;;;17.02;9.32;;;;;;;;;;5027211;28;20083;-84
2021/03/02 00:52:23;;;;;;;13.30;7.90;;;;;;;;;;5025620;28;20029;-84
2021/03/02 00:55:08;;;;;;;12.55;7.65;;;;;;;;;;5022492;28;20021;-83
2021/03/02 00:57:54;;;;;;;17.65;8.40;;;;;;;;;;5026169;28;20018;-84
2021/03/02 01:00:39;;;;;;;13.63;7.60;;;;;;;;;;5026406;28;20029;-84
2021/03/02 01:03:24;;;;;;;18.33;9.65;;;;;;;;;;5027202;28;20026;-84
2021/03/02 01:06:09;;;;;;;18.17;8.57;;;;;;;;;;5031147;28;20056;-84
2021/03/02 01:08:54;;;;;;;15.82;8.35;;;;;;;;;;5028070;28;20032;-85
2021/03/02 01:11:40;;;;;;;12.20;6.78;;;;;;;;;;5033387;28;20098;-85
2021/03/02 01:14:25;;;;;;;14.85;9.13;;;;;;;;;;5016707;28;20094;-85
2021/03/02 01:17:10;;;;;;;15.27;8.23;;;;;;;;;;5030275;28;20052;-83
2021/03/02 01:19:55;;;;;;;18.30;8.68;;;;;;;;;;5023604;28;20025;-84
2021/03/02 01:22:41;;;;;;;13.07;7.20;;;;;;;;;;5022057;28;20045;-84
2021/03/02 01:25:27;;;;;;;12.73;7.80;;;;;;;;;;5028967;28;20033;-83
2021/03/02 01:28:12;;;;;;;16.55;7.68;;;;;;;;;;5027937;28;20040;-84
2021/03/02 01:31:00;;;;;;;16.25;7.60;;;;;;;;;;5029811;28;20029;-85
2021/03/02 01:33:45;;;;;;;15.85;7.82;;;;;;;;;;5026628;28;20037;-84
2021/03/02 01:36:30;;;;;;;16.95;8.25;;;;;;;;;;5028507;28;20125;-85
2021/03/02 01:39:16;;;;;;;16.48;9.38;;;;;;;;;;5018824;28;20092;-84
2021/03/02 01:42:01;;;;;;;16.23;8.32;;;;;;;;;;5024857;28;20032;-84
2021/03/02 01:44:47;;;;;;;14.40;7.32;;;;;;;;;;5027451;28;20033;-85
2021/03/02 01:47:32;;;;;;;17.60;6.97;;;;;;;;;;5030187;28;20035;-83
2021/03/02 01:50:18;;;;;;;14.75;8.60;;;;;;;;;;5025169;28;20025;-83
2021/03/02 01:53:03;;;;;;;13.98;7.95;;;;;;;;;;5022712;28;20036;-84
2021/03/02 01:55:48;;;;;;;16.17;8.38;;;;;;;;;;5024566;28;20021;-84
2021/03/02 01:58:33;;;;;;;15.00;8.52;;;;;;;;;;5023435;28;20018;-85
2021/03/02 02:01:19;;;;;;;13.60;8.25;;;;;;;;;;5024475;28;20139;-83
2021/03/02 02:04:10;;;;;;;16.25;8.43;;;;;;;;;;5023454;28;20108;-84
2021/03/02 02:07:03;;;;;;;15.88;8.25;;;;;;;;;;5022683;28;20021;-84
2021/03/02 02:09:56;;;;;;;14.82;8.70;;;;;;;;;;5007845;28;20037;-83
2021/03/02 02:12:44;;;;;;;16.48;8.95;;;;;;;;;;5040882;28;20045;-83
2021/03/02 02:15:32;;;;;;;16.10;8.23;;;;;;;;;;5019501;28;20052;-83
2021/03/02 02:18:21;;;;;;;13.95;8.55;;;;;;;;;;5027904;28;20101;-84
2021/03/02 02:21:07;;;;;;;16.67;8.68;;;;;;;;;;5026031;28;20105;-84
2021/03/02 02:24:10;;;;;;;14.75;8.07;;;;;;;;;;5027873;28;20079;-84
2021/03/02 02:26:56;;;;;;;15.77;8.30;;;;;;;;;;5026132;28;20083;-84
2021/03/02 02:29:42;;;;;;;14.63;7.90;;;;;;;;;;5025952;28;20155;-83
2021/03/02 02:32:28;;;;;;;14.75;8.65;;;;;;;;;;5014129;28;20021;-84
2021/03/02 02:35:14;;;;;;;14.13;8.23;;;;;;;;;;5024731;28;20024;-83
2021/03/02 02:38:01;;;;;;;14.48;8.55;;;;;;;;;;5028686;28;20033;-82
2021/03/02 02:40:48;;;;;;;14.63;8.57;;;;;;;;;;5020804;28;20069;-83
2021/03/02 02:43:34;;;;;;;16.35;8.25;;;;;;;;;;5025578;28;20033;-84
2021/03/02 02:46:19;;;;;;;16.27;8.35;;;;;;;;;;5024924;28;20472;-83
2021/03/02 02:49:04;;;;;;;14.90;8.85;;;;;;;;;;5022665;28;20322;-84
2021/03/02 02:51:50;;;;;;;14.95;8.15;;;;;;;;;;5025711;28;20644;-84
2021/03/02 02:54:36;;;;;;;17.55;8.82;;;;;;;;;;5028259;28;20484;-84
2021/03/02 02:57:21;;;;;;;14.77;8.40;;;;;;;;;;5019765;28;20045;-84
2021/03/02 03:00:07;;;;;;;14.60;9.18;;;;;;;;;;5007975;28;20368;-85
2021/03/02 03:02:54;;;;;;;15.63;8.60;;;;;;;;;;5025135;28;20116;-84
2021/03/02 03:05:43;;;;;;;20.92;11.45;;;;;;;;;;5027722;28;20104;-84
2021/03/02 03:08:31;;;;;;;13.85;7.85;;;;;;;;;;5024188;28;20330;-85
2021/03/02 03:11:18;;;;;;;16.95;9.23;;;;;;;;;;5019896;28;20037;-85
2021/03/02 03:14:05;;;;;;;16.45;8.82;;;;;;;;;;5014294;28;20028;-84
2021/03/02 03:16:50;;;;;;;16.58;8.20;;;;;;;;;;5034880;28;20034;-83
2021/03/02 03:19:37;;;;;;;15.27;8.52;;;;;;;;;;5032334;28;20029;-84
2021/03/02 03:22:22;;;;;;;14.32;9.13;;;;;;;;;;5007385;28;20105;-83
2021/03/02 03:25:08;;;;;;;12.82;7.72;;;;;;;;;;5021266;28;20411;-85
2021/03/02 03:27:56;;;;;;;19.17;9.35;;;;;;;;;;5025932;28;20087;-83
2021/03/02 03:30:41;;;;;;;16.15;10.38;;;;;;;;;;5027778;28;20017;-84
2021/03/02 03:33:28;;;;;;;15.38;9.30;;;;;;;;;;5023679;28;20102;-84
2021/03/02 03:36:13;;;;;;;15.23;9.00;;;;;;;;;;5011902;28;20068;-83
2021/03/02 03:39:01;;;;;;;13.63;8.15;;;;;;;;;;5024295;28;20455;-84
2021/03/02 03:41:48;;;;;;;16.17;9.23;;;;;;;;;;5025341;28;20658;-82
2021/03/02 03:44:33;;;;;;;17.98;9.63;;;;;;;;;;5005035;28;20044;-83
2021/03/02 03:47:19;;;;;;;15.25;8.18;;;;;;;;;;5028536;28;20488;-83
2021/03/02 03:50:05;;;;;;;14.95;8.00;;;;;;;;;;5028289;28;20033;-83
2021/03/02 03:52:52;;;;;;;15.23;8.23;;;;;;;;;;5030633;28;20098;-83
2021/03/02 03:55:40;;;;;;;16.92;7.90;;;;;;;;;;5017140;28;20021;-83
2021/03/02 03:58:27;;;;;;;14.50;9.65;;;;;;;;;;5026917;28;20083;-83
2021/03/02 04:01:12;;;;;;;16.38;8.85;;;;;;;;;;5025208;28;20014;-83
2021/03/02 04:03:57;;;;;;;12.88;8.18;;;;;;;;;;5013841;28;20095;-83
2021/03/02 04:06:44;;;;;;;16.60;8.98;;;;;;;;;;5029497;28;20025;-83
2021/03/02 04:09:30;;;;;;;18.38;8.88;;;;;;;;;;5029055;28;20360;-83
2021/03/02 04:12:16;;;;;;;16.10;9.18;;;;;;;;;;5027116;28;20023;-84
2021/03/02 04:15:01;;;;;;;17.35;8.98;;;;;;;;;;5011607;28;20045;-82
2021/03/02 04:17:50;;;;;;;19.05;9.98;;;;;;;;;;5026247;28;20082;-83
2021/03/02 04:20:35;;;;;;;19.55;9.43;;;;;;;;;;5026874;28;20440;-83
2021/03/02 04:23:21;;;;;;;15.65;8.50;;;;;;;;;;5014780;28;20414;-83
2021/03/02 04:26:06;;;;;;;17.52;9.38;;;;;;;;;;5013527;28;20031;-85
2021/03/02 04:28:51;;;;;;;16.80;8.82;;;;;;;;;;5022068;28;20088;-84
2021/03/02 04:31:36;;;;;;;17.38;9.57;;;;;;;;;;5024334;28;20025;-85
2021/03/02 04:34:21;;;;;;;16.85;9.00;;;;;;;;;;5032025;28;20076;-86
2021/03/02 04:37:06;;;;;;;16.33;8.80;;;;;;;;;;5028985;28;20021;-84
2021/03/02 04:39:52;;;;;;;14.85;8.63;;;;;;;;;;5031054;28;20434;-85
2021/03/02 04:42:37;;;;;;;19.02;10.35;;;;;;;;;;5015348;28;20055;-85
2021/03/02 04:45:23;;;;;;;18.25;10.60;;;;;;;;;;5025773;28;20032;-83
2021/03/02 04:48:08;;;;;;;14.38;9.05;;;;;;;;;;5022858;28;20155;-83
2021/03/02 04:50:53;;;;;;;15.70;8.35;;;;;;;;;;5023884;28;20361;-83
2021/03/02 04:53:38;;;;;;;16.08;9.43;;;;;;;;;;5030239;28;20029;-85
2021/03/02 04:56:24;;;;;;;14.32;8.35;;;;;;;;;;5026170;28;20455;-85
2021/03/02 04:59:09;;;;;;;15.65;9.70;;;;;;;;;;5026820;28;20347;-85
2021/03/02 05:01:54;;;;;;;15.05;8.55;;;;;;;;;;5019971;28;20051;-84
2021/03/02 05:04:39;;;;;;;18.33;9.52;;;;;;;;;;5025205;28;20033;-85
2021/03/02 05:07:24;;;;;;;18.15;8.77;;;;;;;;;;5024770;28;20021;-84
2021/03/02 05:10:10;;;;;;;17.60;10.50;;;;;;;;;;5026071;28;20029;-84
2021/03/02 05:12:55;;;;;;;14.00;8.68;;;;;;;;;;5024449;28;20017;-85
2021/03/02 05:15:40;;;;;;;17.73;9.85;;;;;;;;;;5025568;28;20083;-86
2021/03/02 05:18:26;;;;;;;15.60;9.45;;;;;;;;;;5023289;28;20056;-85
2021/03/02 05:21:11;;;;;;;18.33;9.80;;;;;;;;;;5029395;28;20027;-84
2021/03/02 05:23:56;;;;;;;20.52;9.90;;;;;;;;;;5027000;28;20053;-84
2021/03/02 05:26:42;;;;;;;17.45;9.98;;;;;;;;;;5025132;28;20025;-85
2021/03/02 05:29:27;;;;;;;16.23;9.43;;;;;;;;;;5027563;28;20029;-85
2021/03/02 05:32:12;;;;;;;17.08;9.27;;;;;;;;;;5025000;28;20075;-83
2021/03/02 05:34:57;;;;;;;17.15;9.77;;;;;;;;;;5026520;28;20017;-85
2021/03/02 05:37:42;;;;;;;19.05;9.35;;;;;;;;;;5022493;28;20037;-84
2021/03/02 05:40:27;;;;;;;16.95;10.38;;;;;;;;;;5011181;28;20690;-85
2021/03/02 05:43:13;;;;;;;31.42;15.68;;;;;;;;;;5022352;28;20053;-85
2021/03/02 05:45:58;;;;;;;19.15;9.80;;;;;;;;;;5028101;28;20033;-84
2021/03/02 05:48:43;;;;;;;18.98;10.88;;;;;;;;;;5023335;28;20017;-84
2021/03/02 05:51:28;;;;;;;17.65;9.57;;;;;;;;;;5023425;28;20105;-84
2021/03/02 05:54:15;;;;;;;20.48;9.88;;;;;;;;;;5023691;28;20023;-83
2021/03/02 05:57:01;;;;;;;19.45;9.73;;;;;;;;;;5008096;28;20132;-85
2021/03/02 05:59:49;;;;;;;19.80;10.52;;;;;;;;;;5019701;28;20030;-84
2021/03/02 06:02:34;;;;;;;22.08;9.93;;;;;;;;;;5025227;28;20926;-83
2021/03/02 06:05:19;;;;;;;20.52;10.43;;;;;;;;;;5028363;28;20112;-84
2021/03/02 06:08:08;;;;;;;20.17;10.80;;;;;;;;;;5021812;28;20072;-84
2021/03/02 06:10:53;;;;;;;21.08;11.07;;;;;;;;;;5027921;28;20108;-83
2021/03/02 06:13:38;;;;;;;19.63;11.10;;;;;;;;;;5021738;28;20048;-82
2021/03/02 06:16:24;;;;;;;21.17;10.95;;;;;;;;;;5026773;28;20516;-82
2021/03/02 06:19:09;;;;;;;18.30;9.52;;;;;;;;;;5018679;28;20044;-82
2021/03/02 06:21:55;;;;;;;24.98;10.70;;;;;;;;;;5026321;28;20463;-83
2021/03/02 06:24:41;;;;;;;17.27;9.77;;;;;;;;;;5022665;28;20504;-84
2021/03/02 06:27:26;;;;;;;18.88;9.68;;;;;;;;;;5012775;28;20065;-85
2021/03/02 06:30:15;;;;;;;21.33;10.48;;;;;;;;;;5010843;28;20021;-86
2021/03/02 06:33:00;;;;;;;19.48;11.07;;;;;;;;;;5027463;28;20018;-85
2021/03/02 06:35:46;;;;;;;20.60;9.57;;;;;;;;;;5018684;28;20025;-82
2021/03/02 06:38:32;;;;;;;16.50;9.55;;;;;;;;;;5021795;28;20076;-84
2021/03/02 06:41:21;;;;;;;58.13;32.53;;;;;;;;;;5024662;28;20037;-84
2021/03/02 06:44:16;;;;;;;26.48;14.93;;;;;;;;;;5026226;28;20079;-85
2021/03/02 06:47:01;;;;;;;19.02;10.30;;;;;;;;;;5022210;28;20404;-85
2021/03/02 06:49:46;;;;;;;20.40;11.38;;;;;;;;;;5022721;28;20030;-83
2021/03/02 06:52:36;;;;;;;21.65;11.45;;;;;;;;;;5015115;28;20029;-84
2021/03/02 06:55:23;;;;;;;18.60;10.77;;;;;;;;;;5027942;28;20029;-85
2021/03/02 06:58:24;;;;;;;19.38;10.65;;;;;;;;;;5022677;28;20029;-87
2021/03/02 07:01:12;;;;;;;18.40;11.43;;;;;;;;;;5016485;28;20029;-84
2021/03/02 07:04:07;;;;;;;23.02;11.45;;;;;;;;;;5023204;28;20029;-82
2021/03/02 07:06:57;;;;;;;17.90;10.68;;;;;;;;;;5014304;28;20187;-82
2021/03/02 07:09:42;;;;;;;;;;;;;;;;;;5035584;28;20475;-83
2021/03/02 07:12:31;;;;;;;23.35;11.15;;;;;;;;;;5024122;28;19917;-85
2021/03/02 07:15:20;;;;;;;22.58;11.45;;;;;;;;;;5020414;28;20045;-83
2021/03/02 07:18:06;;;;;;;21.80;11.90;;;;;;;;;;5020828;28;20476;-83
2021/03/02 07:20:54;;;;;;;22.83;10.65;;;;;;;;;;5005776;28;20034;-83
2021/03/02 07:23:40;;;;;;;17.88;11.52;;;;;;;;;;5023192;28;20075;-82
2021/03/02 07:26:26;;;;;;;18.48;11.02;;;;;;;;;;5027697;28;20486;-82
2021/03/02 07:29:12;;;;;;;21.33;11.45;;;;;;;;;;5022272;28;20366;-82
2021/03/02 07:31:58;;;;;;;20.75;12.27;;;;;;;;;;5022526;28;20366;-82
2021/03/02 07:34:44;;;;;;;22.17;12.10;;;;;;;;;;5019323;28;20511;-83
2021/03/02 07:37:29;;;;;;;19.20;12.13;;;;;;;;;;5016890;28;20033;-82
2021/03/02 07:40:15;;;;;;;32.17;20.75;;;;;;;;;;5006483;28;20042;-82
2021/03/02 07:43:20;;;;;;;31.05;20.88;;;;;;;;;;5008942;28;20109;-83
2021/03/02 07:46:24;;;;;;;21.55;13.02;;;;;;;;;;5026441;28;20026;-82
2021/03/02 07:49:22;;;;;;;21.60;12.63;;;;;;;;;;5024898;28;20021;-82
2021/03/02 07:52:09;;;;;;;21.33;12.75;;;;;;;;;;5031823;28;20500;-82
2021/03/02 07:55:13;;;;;;;23.73;13.65;;;;;;;;;;5032034;28;20615;-83
2021/03/02 07:58:19;;;;;;;23.98;14.32;;;;;;;;;;5019470;28;20038;-83
2021/03/02 08:01:17;;;;;;;20.52;13.93;;;;;;;;;;5024225;28;20033;-88
2021/03/02 08:04:15;;;;;;;28.02;14.90;;;;;;;;;;5024485;28;20175;-88
2021/03/02 08:07:19;;;;;;;21.92;13.93;;;;;;;;;;5022650;28;20488;-84
2021/03/02 08:10:24;;;;;;;23.05;14.38;;;;;;;;;;5018003;28;20025;-83
2021/03/02 08:13:28;;;;;;;21.23;13.13;;;;;;;;;;5020294;28;20033;-84
2021/03/02 08:16:13;;;;;;;25.77;15.13;;;;;;;;;;5024559;28;20448;-83
2021/03/02 08:18:59;;;;;;;28.92;15.52;;;;;;;;;;5005896;28;20117;-83
2021/03/02 08:21:44;;;;;;;37.45;16.05;;;;;;;;;;5026710;28;20028;-85
2021/03/02 08:24:48;;;;;;;21.98;14.35;;;;;;;;;;5022411;28;20085;-84
2021/03/02 08:27:37;;;;;;;20.48;13.98;;;;;;;;;;5013279;28;20133;-84
2021/03/02 08:30:27;;;;;;;23.75;13.25;;;;;;;;;;5018185;28;20041;-82
2021/03/02 08:33:18;;;;;;;21.73;13.90;;;;;;;;;;5021253;28;20025;-82
2021/03/02 08:36:06;;;;;;;20.65;13.68;;;;;;;;;;5024931;28;20108;-81
2021/03/02 08:38:52;;;;;;;22.38;14.02;;;;;;;;;;5027339;28;20022;-83
2021/03/02 08:41:39;;;;;;;23.30;14.60;;;;;;;;;;5029264;28;20040;-83
2021/03/02 08:44:25;;;;;;;26.00;13.70;;;;;;;;;;5026041;28;20032;-83
2021/03/02 08:47:10;;;;;;;23.17;14.52;;;;;;;;;;5027364;28;20021;-82
2021/03/02 08:49:55;;;;;;;16.73;12.57;;;;;;;;;;5014747;28;20029;-82
2021/03/02 08:52:41;;;;;;;24.30;12.77;;;;;;;;;;5029904;28;20479;-84
2021/03/02 08:55:36;;;;;;;21.25;13.07;;;;;;;;;;5026382;28;20036;-83
2021/03/02 08:58:26;;;;;;;21.75;12.75;;;;;;;;;;5027934;28;20025;-82
2021/03/02 09:01:14;;;;;;;21.55;13.00;;;;;;;;;;5023679;28;20017;-82
2021/03/02 09:04:19;;;;;;;19.30;12.32;;;;;;;;;;5035198;28;20430;-83
2021/03/02 09:07:04;;;;;;;20.80;14.18;;;;;;;;;;5026400;28;20080;-84
2021/03/02 09:09:49;;;;;;;20.27;13.05;;;;;;;;;;5027494;28;20369;-84
2021/03/02 09:12:34;;;;;;;97.47;72.25;;;;;;;;;;5024653;28;20048;-84
2021/03/02 09:15:32;;;;;;;19.95;15.18;;;;;;;;;;5024663;28;20034;-83
2021/03/02 09:18:17;;;;;;;23.40;16.00;;;;;;;;;;5028508;28;20029;-84
2021/03/02 09:21:09;;;;;;;20.73;13.13;;;;;;;;;;5022817;28;20021;-84
2021/03/02 09:23:55;;;;;;;26.02;14.38;;;;;;;;;;5027023;28;20167;-85
2021/03/02 09:26:40;;;;;;;18.65;13.25;;;;;;;;;;5028223;28;20160;-85
2021/03/02 09:29:27;;;;;;;16.58;12.05;;;;;;;;;;5032425;28;20017;-84
2021/03/02 09:32:21;;;;;;;19.10;11.88;;;;;;;;;;5029282;28;20017;-84
2021/03/02 09:35:08;;;;;;;19.23;12.38;;;;;;;;;;5025967;28;20025;-83
2021/03/02 09:37:54;;;;;;;19.67;12.43;;;;;;;;;;5024341;28;20048;-85
2021/03/02 09:40:42;;;;;;;18.73;13.45;;;;;;;;;;5025463;28;20045;-83
2021/03/02 09:43:38;;;;;;;19.27;13.70;;;;;;;;;;5023901;28;20185;-85
2021/03/02 09:46:37;;;;;;;19.23;12.18;;;;;;;;;;5028137;28;20055;-82
2021/03/02 09:49:32;;;;;;;15.25;11.60;;;;;;;;;;5027189;28;20028;-84
2021/03/02 09:52:28;;;;;;;23.88;13.65;;;;;;;;;;5025647;28;20067;-83
2021/03/02 09:55:31;;;;;;;18.63;13.57;;;;;;;;;;5029509;28;20025;-83
2021/03/02 09:58:17;;;;;;;19.73;13.20;;;;;;;;;;5024166;28;20307;-84
2021/03/02 10:01:04;;;;;;;19.35;12.30;;;;;;;;;;5026055;28;20630;-85
2021/03/02 10:03:49;;;;;;;18.73;13.02;;;;;;;;;;5027997;28;20762;-84
2021/03/02 10:06:34;;;;;;;28.23;25.65;;;;;;;;;;5035678;28;20048;-87
2021/03/02 10:09:26;;;;;;;28.85;26.25;;;;;;;;;;5035531;28;20063;-89
2021/03/02 10:12:12;;;;;;;36.85;33.65;;;;;;;;;;5031070;28;20029;-88
2021/03/02 10:14:58;;;;;;;40.25;37.45;;;;;;;;;;5033255;28;20033;-91
2021/03/02 10:17:43;;;;;;;43.05;39.45;;;;;;;;;;5025940;28;20029;-90
2021/03/02 10:20:29;;;;;;;50.92;47.75;;;;;;;;;;5045845;28;20015;-88
2021/03/02 10:23:14;;;;;;;49.83;46.25;;;;;;;;;;5035831;28;20051;-88
2021/03/02 10:25:59;;;;;;;1999.90;999.90;;;;;;;;;;5035024;28;20033;-90
2021/03/02 10:28:47;;;;;;;1999.90;999.90;;;;;;;;;;5040365;28;20047;-88
2021/03/02 10:31:34;;;;;;;1999.90;999.90;;;;;;;;;;5038670;28;20033;-86
2021/03/02 10:34:19;;;;;;;1999.90;999.90;;;;;;;;;;5017015;28;20025;-86
2021/03/02 10:37:06;;;;;;;1999.90;999.90;;;;;;;;;;5033286;28;20022;-88
2021/03/02 10:39:52;;;;;;;1999.90;999.90;;;;;;;;;;5025967;28;20030;-86
2021/03/02 10:42:37;;;;;;;1999.90;999.90;;;;;;;;;;5037069;28;20029;-91
2021/03/02 10:45:22;;;;;;;1999.90;999.90;;;;;;;;;;5016333;28;20026;-88
2021/03/02 10:48:08;;;;;;;1999.90;999.90;;;;;;;;;;5029503;28;20508;-90
2021/03/02 10:54:30;;;;;;;1999.90;999.90;;;;;;;;;;5021033;28;20029;-86
2021/03/02 10:57:16;;;;;;;1999.90;999.90;;;;;;;;;;5025727;28;20017;-85
2021/03/02 11:00:02;;;;;;;16.70;12.38;;;;;;;;;;5033462;28;20449;-91
2021/03/02 11:02:47;;;;;;;15.80;11.75;;;;;;;;;;5042260;28;20017;-87
2021/03/02 11:05:53;;;;;;;16.30;11.85;;;;;;;;;;5026019;28;20096;-89
2021/03/02 11:12:14;;;;;;;16.52;11.60;;;;;;;;;;4994860;28;20480;-88
2021/03/02 11:15:00;;;;;;;17.75;11.27;;;;;;;;;;5023979;28;20071;-83
2021/03/02 11:17:45;;;;;;;15.30;11.38;;;;;;;;;;5019867;28;20040;-82
2021/03/02 11:20:31;;;;;;;26.88;13.55;;;;;;;;;;5017412;28;20040;-85
2021/03/02 11:23:17;;;;;;;17.10;12.95;;;;;;;;;;5014522;28;20036;-81
2021/03/02 11:26:02;;;;;;;35.90;26.30;;;;;;;;;;5021425;28;20080;-84
2021/03/02 11:28:47;;;;;;;16.25;11.50;;;;;;;;;;5022981;28;20028;-83
2021/03/02 11:31:32;;;;;;;18.02;11.40;;;;;;;;;;5022263;28;20037;-82
2021/03/02 11:34:18;;;;;;;20.08;12.70;;;;;;;;;;5024140;28;20025;-82
2021/03/02 11:37:03;;;;;;;15.68;10.85;;;;;;;;;;5022618;28;20137;-84
2021/03/02 11:39:48;;;;;;;14.85;11.13;;;;;;;;;;5025996;28;20049;-84
2021/03/02 11:42:34;;;;;;;18.80;12.30;;;;;;;;;;5024001;28;20029;-83
2021/03/02 11:45:20;;;;;;;21.95;11.75;;;;;;;;;;5020845;28;20064;-83
2021/03/02 11:48:06;;;;;;;17.08;11.63;;;;;;;;;;5021327;28;20087;-83
2021/03/02 11:50:51;;;;;;;17.92;11.63;;;;;;;;;;5029153;28;20025;-84
2021/03/02 11:53:37;;;;;;;19.10;12.77;;;;;;;;;;5023051;28;20021;-83
2021/03/02 11:56:22;;;;;;;18.00;12.85;;;;;;;;;;5024456;28;20291;-84
2021/03/02 11:59:07;;;;;;;17.25;12.07;;;;;;;;;;5006596;28;20123;-88
2021/03/02 12:01:52;;;;;;;22.10;11.13;;;;;;;;;;5032898;28;20040;-92
2021/03/02 12:04:48;;;;;;;21.02;13.75;;;;;;;;;;5033919;28;20038;-90
2021/03/02 12:10:19;;;;;;;18.63;13.07;;;;;;;;;;5853385;23;20072;-88
2021/03/02 12:19:56;;;;;;;22.48;14.07;;;;;;;;;;5024325;28;20027;-88
2021/03/02 12:22:50;;;;;;;23.05;13.38;;;;;;;;;;5025303;28;20036;-87
2021/03/02 12:25:46;;;;;;;19.48;12.55;;;;;;;;;;5010786;28;20034;-87
2021/03/02 12:28:35;;;;;;;20.65;12.57;;;;;;;;;;5027300;28;20498;-87
2021/03/02 12:31:23;;;;;;;24.10;14.65;;;;;;;;;;5029819;28;20132;-86
2021/03/02 12:34:17;;;;;;;20.23;12.35;;;;;;;;;;5025652;28;20029;-86
2021/03/02 12:37:06;;;;;;;20.42;12.98;;;;;;;;;;5032535;28;20029;-87
2021/03/02 12:39:55;;;;;;;19.88;11.75;;;;;;;;;;5028809;28;20076;-90
2021/03/02 12:43:19;;;;;;;;;;;;;;;;;;;;;
2021/03/02 12:53:17;;;;;;;19.80;12.00;;;;;;;;;;4875068;29;20048;-88
2021/03/02 12:56:26;;;;;;;;;;;;;;;;;;;;;
2021/03/02 13:03:38;;;;;;;21.92;13.85;;;;;;;;;;4796468;29;20057;-88
2021/03/02 13:06:26;;;;;;;24.38;13.57;;;;;;;;;;4813513;29;20062;-83
2021/03/02 13:09:12;;;;;;;22.95;13.63;;;;;;;;;;4809074;29;20026;-87
2021/03/02 13:12:00;;;;;;;21.63;13.90;;;;;;;;;;4804084;29;20070;-87
2021/03/02 13:22:10;;;;;;;20.63;14.15;;;;;;;;;;4838039;29;20104;-91
2021/03/02 13:25:07;;;;;;;21.10;13.23;;;;;;;;;;4830016;29;20049;-87
2021/03/02 13:28:32;;;;;;;16.88;11.40;;;;;;;;;;4801434;29;20589;-88
2021/03/02 13:31:24;;;;;;;24.67;13.85;;;;;;;;;;4862531;29;20392;-83
2021/03/02 13:34:30;;;;;;;21.52;13.60;;;;;;;;;;4879916;29;20717;-88
2021/03/02 13:37:15;;;;;;;21.33;12.68;;;;;;;;;;5021120;28;20090;-83
2021/03/02 13:40:02;;;;;;;26.90;14.90;;;;;;;;;;5022195;28;20021;-84
2021/03/02 13:42:49;;;;;;;21.88;13.82;;;;;;;;;;5024396;28;20029;-84
2021/03/02 13:45:35;;;;;;;22.40;14.20;;;;;;;;;;5029505;28;20476;-85
2021/03/02 13:48:20;;;;;;;26.45;13.52;;;;;;;;;;5023858;28;20026;-84
2021/03/02 13:51:06;;;;;;;22.23;13.40;;;;;;;;;;5024018;28;20861;-83
2021/03/02 13:53:51;;;;;;;23.15;14.35;;;;;;;;;;5021245;28;20021;-83
2021/03/02 13:56:37;;;;;;;20.45;13.52;;;;;;;;;;5023352;28;20099;-82
2021/03/02 13:59:22;;;;;;;25.05;14.45;;;;;;;;;;5035119;28;20029;-84
2021/03/02 14:02:08;;;;;;;23.63;14.88;;;;;;;;;;5022469;28;20483;-84
2021/03/02 14:04:55;;;;;;;24.85;14.07;;;;;;;;;;5022595;28;20049;-85
2021/03/02 14:07:52;;;;;;;23.35;14.75;;;;;;;;;;5023618;28;20506;-85
2021/03/02 14:10:37;;;;;;;24.92;15.00;;;;;;;;;;5010583;28;20182;-84
2021/03/02 14:13:25;;;;;;;34.15;22.42;;;;;;;;;;5019192;28;20030;-85
2021/03/02 14:16:11;;;;;;;23.73;14.18;;;;;;;;;;5026591;28;20032;-84
2021/03/02 14:18:56;;;;;;;26.88;14.35;;;;;;;;;;5020594;28;20025;-83
2021/03/02 14:21:42;;;;;;;19.10;13.13;;;;;;;;;;5028522;28;20510;-87
2021/03/02 14:24:27;;;;;;;25.02;13.77;;;;;;;;;;5023621;28;20564;-85
2021/03/02 14:27:18;;;;;;;24.63;14.35;;;;;;;;;;5012871;28;20017;-84
2021/03/02 14:30:05;;;;;;;24.90;14.88;;;;;;;;;;5026250;28;20023;-85
2021/03/02 14:32:50;;;;;;;23.50;13.35;;;;;;;;;;5025678;28;20026;-86
2021/03/02 14:35:35;;;;;;;20.90;12.73;;;;;;;;;;5026197;28;20056;-89
2021/03/02 14:38:21;;;;;;;28.35;13.52;;;;;;;;;;5025725;28;20104;-87
2021/03/02 14:41:07;;;;;;;28.02;14.43;;;;;;;;;;5030909;28;20030;-89
2021/03/02 14:43:53;;;;;;;33.22;16.98;;;;;;;;;;5011584;28;20036;-86
2021/03/02 14:46:39;;;;;;;24.63;13.70;;;;;;;;;;5022036;28;20026;-86
2021/03/02 14:49:27;;;;;;;24.95;13.90;;;;;;;;;;5024580;28;20021;-86
2021/03/02 14:52:13;;;;;;;23.55;13.38;;;;;;;;;;5035501;28;20506;-85
2021/03/02 14:54:58;;;;;;;26.08;15.77;;;;;;;;;;5020825;28;20166;-86
2021/03/02 14:57:44;;;;;;;29.23;14.10;;;;;;;;;;5028042;28;20029;-86
2021/03/02 15:00:30;;;;;;;21.95;13.13;;;;;;;;;;5026614;28;20045;-86
2021/03/02 15:03:16;;;;;;;26.63;12.75;;;;;;;;;;5029288;28;20380;-85
2021/03/02 15:06:01;;;;;;;22.23;14.15;;;;;;;;;;5027956;28;20033;-85
2021/03/02 15:08:46;;;;;;;26.02;13.90;;;;;;;;;;5013639;28;20601;-86
2021/03/02 15:11:32;;;;;;;24.92;13.43;;;;;;;;;;5022628;28;20473;-85
2021/03/02 15:14:17;;;;;;;25.35;14.27;;;;;;;;;;5026497;28;20112;-87
2021/03/02 15:17:03;;;;;;;25.58;13.40;;;;;;;;;;5021333;28;20025;-82
2021/03/02 15:19:48;;;;;;;22.52;12.93;;;;;;;;;;5024224;28;20477;-85
2021/03/02 15:22:34;;;;;;;26.00;14.63;;;;;;;;;;5033223;28;20029;-90
2021/03/02 15:25:20;;;;;;;21.88;13.18;;;;;;;;;;5024701;28;20334;-85
2021/03/02 15:28:08;;;;;;;29.52;15.73;;;;;;;;;;5026854;28;20504;-83
2021/03/02 15:30:56;;;;;;;24.90;14.15;;;;;;;;;;5019242;28;20018;-83
2021/03/02 15:33:43;;;;;;;25.38;13.55;;;;;;;;;;5015328;28;20021;-85
2021/03/02 15:36:29;;;;;;;26.65;12.82;;;;;;;;;;5021008;28;20479;-90
2021/03/02 15:39:15;;;;;;;22.25;13.05;;;;;;;;;;5021754;28;20033;-89
2021/03/02 15:42:00;;;;;;;31.25;14.55;;;;;;;;;;5028583;28;20071;-93
2021/03/02 15:44:50;;;;;;;26.92;11.98;;;;;;;;;;5032682;28;20379;-92
2021/03/02 15:47:36;;;;;;;25.58;15.45;;;;;;;;;;5025652;28;20099;-91
2021/03/02 15:50:25;;;;;;;27.97;14.03;;;;;;;;;;5032376;28;20025;-93
2021/03/02 15:53:13;;;;;;;21.90;13.18;;;;;;;;;;5029715;28;20490;-91
2021/03/02 15:55:58;;;;;;;22.55;12.43;;;;;;;;;;5042372;28;20388;-90
2021/03/02 15:58:48;;;;;;;21.10;12.18;;;;;;;;;;5033581;28;20075;-93
2021/03/02 16:01:36;;;;;;;26.33;13.55;;;;;;;;;;5035789;28;20045;-94
2021/03/02 16:04:27;;;;;;;22.73;13.20;;;;;;;;;;5037559;28;20116;-94
2021/03/02 16:07:19;;;;;;;27.70;12.77;;;;;;;;;;5052000;28;20017;-93
2021/03/02 16:55:08;;;;;;;23.90;12.80;;;;;;;;;;4723119;23;20304;-86
2021/03/02 16:58:02;;;;;;;22.63;12.00;;;;;;;;;;5000591;28;20272;-86
2021/03/02 17:00:53;;;;;;;21.25;11.05;;;;;;;;;;5030100;28;20021;-88
2021/03/02 17:03:42;;;;;;;21.05;10.32;;;;;;;;;;5009710;28;20064;-86
2021/03/02 17:06:28;;;;;;;21.92;11.18;;;;;;;;;;5022747;28;20034;-90
2021/03/02 17:09:16;;;;;;;58.03;37.90;;;;;;;;;;5017910;28;20401;-87
2021/03/02 17:12:01;;;;;;;49.55;31.20;;;;;;;;;;5016463;28;20017;-87
2021/03/02 17:14:50;;;;;;;28.30;13.52;;;;;;;;;;5017798;28;20048;-88
2021/03/02 17:17:35;;;;;;;26.70;12.10;;;;;;;;;;5015054;28;20106;-86
2021/03/02 17:20:21;;;;;;;21.92;10.82;;;;;;;;;;5023411;28;20033;-89
2021/03/02 17:23:06;;;;;;;19.90;11.63;;;;;;;;;;5017953;28;20060;-87
2021/03/02 17:25:52;;;;;;;28.92;12.48;;;;;;;;;;5014986;28;20021;-85
2021/03/02 17:28:37;;;;;;;21.55;11.15;;;;;;;;;;5016508;28;20049;-88
2021/03/02 17:31:25;;;;;;;20.92;12.82;;;;;;;;;;5020361;28;20112;-92
2021/03/02 17:34:13;;;;;;;23.02;11.13;;;;;;;;;;5009922;28;20022;-91
2021/03/02 17:37:04;;;;;;;24.10;12.25;;;;;;;;;;5022262;28;20022;-90
2021/03/02 17:40:17;;;;;;;21.13;11.13;;;;;;;;;;5009586;28;20013;-94
2021/03/02 17:43:08;;;;;;;30.52;15.32;;;;;;;;;;5014894;28;20022;-90
2021/03/02 17:46:09;;;;;;;24.63;12.70;;;;;;;;;;4992591;28;20021;-91